sensor_id;sensor_type;location;lat;lon;timestamp;P1;durP1;ratioP1;P2;durP2;ratioP2
29776;SDS011;16677;52.224;7.484;2023-09-08T00:00:03;7.20;;;5.80;;
29776;SDS011;16677;52.224;7.484;2023-09-08T00:02:30;6.47;;;5.35;;
29776;SDS011;16677;52.224;7.484;2023-09-08T00:04:58;6.32;;;5.32;;
29776;SDS011;16677;52.224;7.484;2023-09-08T00:07:25;6.32;;;5.35;;
29776;SDS011;16677;52.224;7.484;2023-09-08T00:09:52;6.82;;;5.45;;
29776;SDS011;16677;52.224;7.484;2023-09-08T00:12:19;5.80;;;5.05;;
29776;SDS011;16677;52.224;7.484;2023-09-08T00:14:47;5.85;;;5.07;;
29776;SDS011;16677;52.224;7.484;2023-09-08T00:17:14;8.23;;;5.38;;
29776;SDS011;16677;52.224;7.484;2023-09-08T00:19:44;6.15;;;5.35;;
29776;SDS011;16677;52.224;7.484;2023-09-08T00:22:12;8.35;;;6.10;;
29776;SDS011;16677;52.224;7.484;2023-09-08T00:24:39;7.38;;;5.82;;
29776;SDS011;16677;52.224;7.484;2023-09-08T00:27:06;6.28;;;5.20;;
29776;SDS011;16677;52.224;7.484;2023-09-08T00:29:33;6.13;;;5.55;;
29776;SDS011;16677;52.224;7.484;2023-09-08T00:32:00;8.50;;;5.43;;
29776;SDS011;16677;52.224;7.484;2023-09-08T00:34:27;6.30;;;5.55;;
29776;SDS011;16677;52.224;7.484;2023-09-08T00:36:54;6.93;;;5.53;;
29776;SDS011;16677;52.224;7.484;2023-09-08T00:39:22;6.40;;;5.43;;
29776;SDS011;16677;52.224;7.484;2023-09-08T00:41:49;7.60;;;5.80;;
29776;SDS011;16677;52.224;7.484;2023-09-08T00:44:20;6.65;;;5.47;;
29776;SDS011;16677;52.224;7.484;2023-09-08T00:46:49;8.18;;;5.85;;
29776;SDS011;16677;52.224;7.484;2023-09-08T00:49:17;7.18;;;5.57;;
29776;SDS011;16677;52.224;7.484;2023-09-08T00:51:44;7.33;;;5.50;;
29776;SDS011;16677;52.224;7.484;2023-09-08T00:54:14;6.60;;;5.90;;
29776;SDS011;16677;52.224;7.484;2023-09-08T00:56:44;6.00;;;5.40;;
29776;SDS011;16677;52.224;7.484;2023-09-08T00:59:13;8.05;;;5.82;;
29776;SDS011;16677;52.224;7.484;2023-09-08T01:01:42;7.05;;;5.75;;
29776;SDS011;16677;52.224;7.484;2023-09-08T01:04:09;7.00;;;6.25;;
29776;SDS011;16677;52.224;7.484;2023-09-08T01:06:37;7.50;;;6.80;;
29776;SDS011;16677;52.224;7.484;2023-09-08T01:09:06;7.88;;;6.40;;
29776;SDS011;16677;52.224;7.484;2023-09-08T01:11:36;6.80;;;5.75;;
29776;SDS011;16677;52.224;7.484;2023-09-08T01:14:03;7.18;;;5.63;;
29776;SDS011;16677;52.224;7.484;2023-09-08T01:24:21;7.97;;;6.90;;
29776;SDS011;16677;52.224;7.484;2023-09-08T01:27:03;7.28;;;6.60;;
29776;SDS011;16677;52.224;7.484;2023-09-08T01:29:32;7.17;;;6.17;;
29776;SDS011;16677;52.224;7.484;2023-09-08T01:32:01;7.25;;;6.65;;
29776;SDS011;16677;52.224;7.484;2023-09-08T01:34:31;7.63;;;6.63;;
29776;SDS011;16677;52.224;7.484;2023-09-08T01:36:59;8.33;;;6.77;;
29776;SDS011;16677;52.224;7.484;2023-09-08T01:39:32;8.37;;;6.53;;
29776;SDS011;16677;52.224;7.484;2023-09-08T01:42:02;7.20;;;6.50;;
29776;SDS011;16677;52.224;7.484;2023-09-08T04:00:54;9.52;;;7.82;;
29776;SDS011;16677;52.224;7.484;2023-09-08T04:03:21;8.20;;;7.50;;
29776;SDS011;16677;52.224;7.484;2023-09-08T04:05:57;8.90;;;8.00;;
29776;SDS011;16677;52.224;7.484;2023-09-08T04:08:26;9.63;;;8.80;;
29776;SDS011;16677;52.224;7.484;2023-09-08T04:10:56;10.88;;;8.80;;
29776;SDS011;16677;52.224;7.484;2023-09-08T04:13:25;9.75;;;8.95;;
29776;SDS011;16677;52.224;7.484;2023-09-08T04:15:53;9.32;;;8.52;;
29776;SDS011;16677;52.224;7.484;2023-09-08T04:18:27;9.80;;;9.00;;
29776;SDS011;16677;52.224;7.484;2023-09-08T04:20:55;10.10;;;9.20;;
29776;SDS011;16677;52.224;7.484;2023-09-08T04:23:22;10.05;;;9.10;;
29776;SDS011;16677;52.224;7.484;2023-09-08T04:25:51;11.07;;;8.70;;
29776;SDS011;16677;52.224;7.484;2023-09-08T04:28:18;10.82;;;9.82;;
29776;SDS011;16677;52.224;7.484;2023-09-08T04:30:46;12.17;;;10.67;;
29776;SDS011;16677;52.224;7.484;2023-09-08T04:33:15;11.20;;;10.13;;
29776;SDS011;16677;52.224;7.484;2023-09-08T04:35:43;11.15;;;10.15;;
29776;SDS011;16677;52.224;7.484;2023-09-08T04:38:10;11.63;;;10.40;;
29776;SDS011;16677;52.224;7.484;2023-09-08T04:40:40;11.10;;;10.00;;
29776;SDS011;16677;52.224;7.484;2023-09-08T04:43:08;10.80;;;9.85;;
29776;SDS011;16677;52.224;7.484;2023-09-08T04:45:38;11.05;;;10.10;;
29776;SDS011;16677;52.224;7.484;2023-09-08T04:48:15;11.23;;;10.13;;
29776;SDS011;16677;52.224;7.484;2023-09-08T04:50:42;10.77;;;9.77;;
29776;SDS011;16677;52.224;7.484;2023-09-08T04:53:14;11.45;;;10.25;;
29776;SDS011;16677;52.224;7.484;2023-09-08T04:55:44;11.02;;;10.07;;
29776;SDS011;16677;52.224;7.484;2023-09-08T04:58:18;12.23;;;11.02;;
29776;SDS011;16677;52.224;7.484;2023-09-08T05:00:51;11.87;;;10.80;;
29776;SDS011;16677;52.224;7.484;2023-09-08T05:03:23;12.25;;;10.95;;
29776;SDS011;16677;52.224;7.484;2023-09-08T05:05:53;10.63;;;9.70;;
29776;SDS011;16677;52.224;7.484;2023-09-08T05:08:20;11.55;;;10.55;;
29776;SDS011;16677;52.224;7.484;2023-09-08T05:10:48;11.07;;;9.98;;
29776;SDS011;16677;52.224;7.484;2023-09-08T05:13:25;11.30;;;10.18;;
29776;SDS011;16677;52.224;7.484;2023-09-08T05:15:57;11.20;;;10.10;;
29776;SDS011;16677;52.224;7.484;2023-09-08T05:18:31;11.37;;;10.27;;
29776;SDS011;16677;52.224;7.484;2023-09-08T05:21:10;11.07;;;9.98;;
29776;SDS011;16677;52.224;7.484;2023-09-08T05:23:54;11.88;;;10.70;;
29776;SDS011;16677;52.224;7.484;2023-09-08T05:26:36;11.90;;;10.70;;
29776;SDS011;16677;52.224;7.484;2023-09-08T05:29:10;11.17;;;10.17;;
29776;SDS011;16677;52.224;7.484;2023-09-08T05:31:43;11.73;;;10.60;;
29776;SDS011;16677;52.224;7.484;2023-09-08T05:34:10;11.65;;;10.45;;
29776;SDS011;16677;52.224;7.484;2023-09-08T05:36:37;10.50;;;9.60;;
29776;SDS011;16677;52.224;7.484;2023-09-08T05:39:06;10.48;;;9.57;;
29776;SDS011;16677;52.224;7.484;2023-09-08T05:41:33;10.32;;;9.32;;
29776;SDS011;16677;52.224;7.484;2023-09-08T05:44:01;11.40;;;10.23;;
29776;SDS011;16677;52.224;7.484;2023-09-08T05:46:28;9.97;;;8.77;;
29776;SDS011;16677;52.224;7.484;2023-09-08T05:48:55;9.88;;;8.98;;
29776;SDS011;16677;52.224;7.484;2023-09-08T05:51:22;10.35;;;9.25;;
29776;SDS011;16677;52.224;7.484;2023-09-08T05:53:49;11.30;;;8.57;;
29776;SDS011;16677;52.224;7.484;2023-09-08T05:56:18;10.00;;;8.95;;
29776;SDS011;16677;52.224;7.484;2023-09-08T05:58:46;11.48;;;9.15;;
29776;SDS011;16677;52.224;7.484;2023-09-08T06:01:14;9.80;;;8.80;;
29776;SDS011;16677;52.224;7.484;2023-09-08T06:03:42;10.25;;;8.75;;
29776;SDS011;16677;52.224;7.484;2023-09-08T06:06:09;9.00;;;8.07;;
29776;SDS011;16677;52.224;7.484;2023-09-08T06:08:36;9.40;;;8.10;;
29776;SDS011;16677;52.224;7.484;2023-09-08T06:11:03;10.48;;;7.57;;
29776;SDS011;16677;52.224;7.484;2023-09-08T06:13:30;8.85;;;7.22;;
29776;SDS011;16677;52.224;7.484;2023-09-08T06:15:58;10.70;;;7.90;;
29776;SDS011;16677;52.224;7.484;2023-09-08T06:18:27;10.48;;;7.63;;
29776;SDS011;16677;52.224;7.484;2023-09-08T06:20:57;9.77;;;7.63;;
29776;SDS011;16677;52.224;7.484;2023-09-08T06:23:24;11.52;;;7.75;;
29776;SDS011;16677;52.224;7.484;2023-09-08T06:25:55;10.55;;;7.20;;
29776;SDS011;16677;52.224;7.484;2023-09-08T06:28:27;10.63;;;7.80;;
29776;SDS011;16677;52.224;7.484;2023-09-08T06:30:54;11.57;;;7.20;;
29776;SDS011;16677;52.224;7.484;2023-09-08T06:33:24;11.23;;;7.00;;
29776;SDS011;16677;52.224;7.484;2023-09-08T06:35:51;10.40;;;7.05;;
29776;SDS011;16677;52.224;7.484;2023-09-08T06:38:20;9.52;;;6.93;;
29776;SDS011;16677;52.224;7.484;2023-09-08T06:40:50;10.60;;;6.68;;
29776;SDS011;16677;52.224;7.484;2023-09-08T06:43:20;10.65;;;6.45;;
29776;SDS011;16677;52.224;7.484;2023-09-08T06:45:50;8.25;;;6.50;;
29776;SDS011;16677;52.224;7.484;2023-09-08T06:48:17;11.60;;;7.00;;
29776;SDS011;16677;52.224;7.484;2023-09-08T06:50:44;10.82;;;6.85;;
29776;SDS011;16677;52.224;7.484;2023-09-08T06:53:14;9.20;;;7.70;;
29776;SDS011;16677;52.224;7.484;2023-09-08T06:55:41;14.85;;;7.47;;
29776;SDS011;16677;52.224;7.484;2023-09-08T06:58:11;9.25;;;6.57;;
29776;SDS011;16677;52.224;7.484;2023-09-08T07:00:41;8.25;;;6.32;;
29776;SDS011;16677;52.224;7.484;2023-09-08T07:03:09;12.35;;;7.00;;
29776;SDS011;16677;52.224;7.484;2023-09-08T07:05:38;11.02;;;6.80;;
29776;SDS011;16677;52.224;7.484;2023-09-08T07:08:06;8.20;;;6.05;;
29776;SDS011;16677;52.224;7.484;2023-09-08T07:10:33;13.60;;;5.72;;
29776;SDS011;16677;52.224;7.484;2023-09-08T07:13:01;8.20;;;6.07;;
29776;SDS011;16677;52.224;7.484;2023-09-08T07:15:28;9.15;;;5.80;;
29776;SDS011;16677;52.224;7.484;2023-09-08T07:17:55;8.07;;;5.75;;
29776;SDS011;16677;52.224;7.484;2023-09-08T07:20:22;8.32;;;5.72;;
29776;SDS011;16677;52.224;7.484;2023-09-08T07:22:49;9.40;;;6.45;;
29776;SDS011;16677;52.224;7.484;2023-09-08T07:25:16;11.50;;;6.03;;
29776;SDS011;16677;52.224;7.484;2023-09-08T07:27:43;11.50;;;5.90;;
29776;SDS011;16677;52.224;7.484;2023-09-08T07:30:11;7.13;;;5.65;;
29776;SDS011;16677;52.224;7.484;2023-09-08T07:32:38;10.60;;;5.57;;
29776;SDS011;16677;52.224;7.484;2023-09-08T07:35:06;6.38;;;5.57;;
29776;SDS011;16677;52.224;7.484;2023-09-08T07:37:40;7.88;;;5.80;;
29776;SDS011;16677;52.224;7.484;2023-09-08T07:40:09;8.25;;;5.32;;
29776;SDS011;16677;52.224;7.484;2023-09-08T07:42:36;9.32;;;5.75;;
29776;SDS011;16677;52.224;7.484;2023-09-08T07:45:04;7.70;;;4.93;;
29776;SDS011;16677;52.224;7.484;2023-09-08T07:47:31;5.78;;;5.20;;
29776;SDS011;16677;52.224;7.484;2023-09-08T07:52:51;6.78;;;5.38;;
29776;SDS011;16677;52.224;7.484;2023-09-08T07:55:19;6.20;;;5.63;;
29776;SDS011;16677;52.224;7.484;2023-09-08T07:57:49;8.20;;;5.55;;
29776;SDS011;16677;52.224;7.484;2023-09-08T08:00:17;7.85;;;5.80;;
29776;SDS011;16677;52.224;7.484;2023-09-08T08:02:47;9.73;;;5.95;;
29776;SDS011;16677;52.224;7.484;2023-09-08T08:05:16;6.78;;;5.88;;
29776;SDS011;16677;52.224;7.484;2023-09-08T08:07:44;9.13;;;5.43;;
29776;SDS011;16677;52.224;7.484;2023-09-08T08:10:11;8.75;;;5.63;;
29776;SDS011;16677;52.224;7.484;2023-09-08T08:12:39;9.90;;;5.53;;
29776;SDS011;16677;52.224;7.484;2023-09-08T08:15:08;9.30;;;5.50;;
29776;SDS011;16677;52.224;7.484;2023-09-08T08:17:39;11.02;;;5.68;;
29776;SDS011;16677;52.224;7.484;2023-09-08T08:20:07;13.48;;;5.70;;
29776;SDS011;16677;52.224;7.484;2023-09-08T08:22:38;9.25;;;5.63;;
29776;SDS011;16677;52.224;7.484;2023-09-08T08:25:05;9.88;;;5.65;;
29776;SDS011;16677;52.224;7.484;2023-09-08T08:27:34;10.77;;;6.13;;
29776;SDS011;16677;52.224;7.484;2023-09-08T08:30:01;8.90;;;5.93;;
29776;SDS011;16677;52.224;7.484;2023-09-08T08:32:29;8.48;;;5.10;;
29776;SDS011;16677;52.224;7.484;2023-09-08T08:34:56;8.73;;;5.32;;
29776;SDS011;16677;52.224;7.484;2023-09-08T08:37:23;9.45;;;6.47;;
29776;SDS011;16677;52.224;7.484;2023-09-08T08:39:51;7.93;;;6.35;;
29776;SDS011;16677;52.224;7.484;2023-09-08T08:42:19;13.27;;;7.82;;
29776;SDS011;16677;52.224;7.484;2023-09-08T08:44:48;8.07;;;6.47;;
29776;SDS011;16677;52.224;7.484;2023-09-08T08:47:16;9.98;;;5.28;;
29776;SDS011;16677;52.224;7.484;2023-09-08T08:49:45;8.13;;;5.68;;
29776;SDS011;16677;52.224;7.484;2023-09-08T08:52:15;10.07;;;5.70;;
29776;SDS011;16677;52.224;7.484;2023-09-08T08:54:44;6.80;;;5.53;;
29776;SDS011;16677;52.224;7.484;2023-09-08T08:57:12;13.02;;;5.78;;
29776;SDS011;16677;52.224;7.484;2023-09-08T08:59:40;10.07;;;5.85;;
29776;SDS011;16677;52.224;7.484;2023-09-08T09:02:13;13.73;;;6.28;;
29776;SDS011;16677;52.224;7.484;2023-09-08T09:04:41;10.50;;;5.78;;
29776;SDS011;16677;52.224;7.484;2023-09-08T09:07:08;13.40;;;5.85;;
29776;SDS011;16677;52.224;7.484;2023-09-08T09:09:35;6.28;;;5.00;;
29776;SDS011;16677;52.224;7.484;2023-09-08T09:12:05;8.13;;;5.22;;
29776;SDS011;16677;52.224;7.484;2023-09-08T09:14:32;6.38;;;5.18;;
29776;SDS011;16677;52.224;7.484;2023-09-08T09:17:00;8.82;;;5.10;;
29776;SDS011;16677;52.224;7.484;2023-09-08T09:19:27;7.75;;;5.22;;
29776;SDS011;16677;52.224;7.484;2023-09-08T09:21:57;9.30;;;5.88;;
29776;SDS011;16677;52.224;7.484;2023-09-08T09:24:43;10.18;;;5.28;;
29776;SDS011;16677;52.224;7.484;2023-09-08T09:27:11;9.60;;;5.45;;
29776;SDS011;16677;52.224;7.484;2023-09-08T09:29:50;7.38;;;5.13;;
29776;SDS011;16677;52.224;7.484;2023-09-08T09:32:22;8.20;;;5.60;;
29776;SDS011;16677;52.224;7.484;2023-09-08T09:34:51;5.55;;;4.97;;
29776;SDS011;16677;52.224;7.484;2023-09-08T09:37:23;8.80;;;5.63;;
29776;SDS011;16677;52.224;7.484;2023-09-08T09:39:53;6.97;;;5.18;;
29776;SDS011;16677;52.224;7.484;2023-09-08T09:42:21;7.50;;;5.38;;
29776;SDS011;16677;52.224;7.484;2023-09-08T09:44:52;5.88;;;5.30;;
29776;SDS011;16677;52.224;7.484;2023-09-08T09:47:19;6.45;;;4.82;;
29776;SDS011;16677;52.224;7.484;2023-09-08T09:49:47;9.80;;;4.90;;
29776;SDS011;16677;52.224;7.484;2023-09-08T09:52:22;6.43;;;5.10;;
29776;SDS011;16677;52.224;7.484;2023-09-08T09:54:50;10.35;;;5.00;;
29776;SDS011;16677;52.224;7.484;2023-09-08T09:57:20;5.68;;;5.13;;
29776;SDS011;16677;52.224;7.484;2023-09-08T09:59:48;5.72;;;5.10;;
29776;SDS011;16677;52.224;7.484;2023-09-08T10:02:17;6.50;;;4.75;;
29776;SDS011;16677;52.224;7.484;2023-09-08T10:04:49;7.57;;;4.88;;
29776;SDS011;16677;52.224;7.484;2023-09-08T10:07:17;6.10;;;4.47;;
29776;SDS011;16677;52.224;7.484;2023-09-08T10:09:45;7.20;;;5.18;;
29776;SDS011;16677;52.224;7.484;2023-09-08T10:12:13;5.72;;;5.10;;
29776;SDS011;16677;52.224;7.484;2023-09-08T10:14:42;5.15;;;4.75;;
29776;SDS011;16677;52.224;7.484;2023-09-08T10:17:12;7.35;;;5.03;;
29776;SDS011;16677;52.224;7.484;2023-09-08T10:19:45;5.55;;;4.97;;
29776;SDS011;16677;52.224;7.484;2023-09-08T10:22:19;11.38;;;5.10;;
29776;SDS011;16677;52.224;7.484;2023-09-08T10:24:50;7.28;;;5.32;;
29776;SDS011;16677;52.224;7.484;2023-09-08T10:27:21;7.25;;;5.32;;
29776;SDS011;16677;52.224;7.484;2023-09-08T10:29:50;6.05;;;4.85;;
29776;SDS011;16677;52.224;7.484;2023-09-08T10:32:19;6.00;;;4.80;;
29776;SDS011;16677;52.224;7.484;2023-09-08T10:34:47;5.97;;;4.97;;
29776;SDS011;16677;52.224;7.484;2023-09-08T10:37:22;7.53;;;4.80;;
29776;SDS011;16677;52.224;7.484;2023-09-08T10:40:03;6.03;;;4.80;;
29776;SDS011;16677;52.224;7.484;2023-09-08T10:43:09;5.50;;;4.60;;
29776;SDS011;16677;52.224;7.484;2023-09-08T10:45:37;10.05;;;4.72;;
29776;SDS011;16677;52.224;7.484;2023-09-08T10:48:07;6.55;;;4.63;;
29776;SDS011;16677;52.224;7.484;2023-09-08T10:50:39;4.40;;;4.00;;
29776;SDS011;16677;52.224;7.484;2023-09-08T10:55:45;6.22;;;4.47;;
29776;SDS011;16677;52.224;7.484;2023-09-08T10:58:38;5.43;;;4.07;;
29776;SDS011;16677;52.224;7.484;2023-09-08T11:01:13;4.80;;;4.00;;
29776;SDS011;16677;52.224;7.484;2023-09-08T11:03:47;5.50;;;4.10;;
29776;SDS011;16677;52.224;7.484;2023-09-08T11:06:17;8.18;;;4.95;;
29776;SDS011;16677;52.224;7.484;2023-09-08T11:08:48;4.85;;;4.35;;
29776;SDS011;16677;52.224;7.484;2023-09-08T11:11:20;5.20;;;4.65;;
29776;SDS011;16677;52.224;7.484;2023-09-08T11:13:48;6.15;;;4.97;;
29776;SDS011;16677;52.224;7.484;2023-09-08T11:16:15;7.43;;;4.75;;
29776;SDS011;16677;52.224;7.484;2023-09-08T11:18:42;5.07;;;4.05;;
29776;SDS011;16677;52.224;7.484;2023-09-08T11:21:10;5.65;;;4.80;;
29776;SDS011;16677;52.224;7.484;2023-09-08T11:23:37;5.95;;;4.70;;
29776;SDS011;16677;52.224;7.484;2023-09-08T11:26:05;5.28;;;4.30;;
29776;SDS011;16677;52.224;7.484;2023-09-08T11:28:33;4.40;;;4.00;;
29776;SDS011;16677;52.224;7.484;2023-09-08T11:31:00;5.80;;;4.53;;
29776;SDS011;16677;52.224;7.484;2023-09-08T11:33:33;5.35;;;4.20;;
29776;SDS011;16677;52.224;7.484;2023-09-08T11:36:01;4.72;;;3.88;;
29776;SDS011;16677;52.224;7.484;2023-09-08T11:38:28;6.75;;;4.53;;
29776;SDS011;16677;52.224;7.484;2023-09-08T11:40:57;4.88;;;4.47;;
29776;SDS011;16677;52.224;7.484;2023-09-08T11:43:25;6.97;;;4.10;;
29776;SDS011;16677;52.224;7.484;2023-09-08T11:45:53;4.82;;;4.32;;
29776;SDS011;16677;52.224;7.484;2023-09-08T11:48:22;4.68;;;4.22;;
29776;SDS011;16677;52.224;7.484;2023-09-08T11:50:54;4.60;;;4.20;;
29776;SDS011;16677;52.224;7.484;2023-09-08T11:53:21;5.93;;;4.10;;
29776;SDS011;16677;52.224;7.484;2023-09-08T11:55:50;4.05;;;3.75;;
29776;SDS011;16677;52.224;7.484;2023-09-08T11:58:20;5.18;;;4.43;;
29776;SDS011;16677;52.224;7.484;2023-09-08T12:00:47;4.63;;;4.22;;
29776;SDS011;16677;52.224;7.484;2023-09-08T12:03:15;5.35;;;4.20;;
29776;SDS011;16677;52.224;7.484;2023-09-08T12:05:44;5.25;;;4.15;;
29776;SDS011;16677;52.224;7.484;2023-09-08T12:08:16;6.97;;;4.03;;
29776;SDS011;16677;52.224;7.484;2023-09-08T12:10:43;5.30;;;3.92;;
29776;SDS011;16677;52.224;7.484;2023-09-08T12:15:44;5.95;;;4.43;;
29776;SDS011;16677;52.224;7.484;2023-09-08T12:18:13;4.35;;;3.85;;
29776;SDS011;16677;52.224;7.484;2023-09-08T12:20:43;5.50;;;4.30;;
29776;SDS011;16677;52.224;7.484;2023-09-08T12:23:18;5.93;;;4.30;;
29776;SDS011;16677;52.224;7.484;2023-09-08T12:25:50;6.75;;;4.57;;
29776;SDS011;16677;52.224;7.484;2023-09-08T12:28:19;5.75;;;4.05;;
29776;SDS011;16677;52.224;7.484;2023-09-08T12:30:51;4.90;;;4.50;;
29776;SDS011;16677;52.224;7.484;2023-09-08T12:33:19;4.90;;;4.28;;
29776;SDS011;16677;52.224;7.484;2023-09-08T12:35:47;4.50;;;4.10;;
29776;SDS011;16677;52.224;7.484;2023-09-08T12:38:17;4.40;;;3.90;;
29776;SDS011;16677;52.224;7.484;2023-09-08T12:40:45;6.00;;;4.20;;
29776;SDS011;16677;52.224;7.484;2023-09-08T12:43:12;5.00;;;3.90;;
29776;SDS011;16677;52.224;7.484;2023-09-08T12:45:54;4.13;;;3.78;;
29776;SDS011;16677;52.224;7.484;2023-09-08T12:48:23;6.32;;;4.20;;
29776;SDS011;16677;52.224;7.484;2023-09-08T12:50:50;4.75;;;3.70;;
29776;SDS011;16677;52.224;7.484;2023-09-08T12:53:17;5.25;;;3.85;;
29776;SDS011;16677;52.224;7.484;2023-09-08T12:55:45;8.50;;;4.03;;
29776;SDS011;16677;52.224;7.484;2023-09-08T12:58:13;7.13;;;4.05;;
29776;SDS011;16677;52.224;7.484;2023-09-08T13:00:40;4.35;;;3.85;;
29776;SDS011;16677;52.224;7.484;2023-09-08T13:03:07;4.88;;;4.00;;
29776;SDS011;16677;52.224;7.484;2023-09-08T13:05:34;4.78;;;4.07;;
29776;SDS011;16677;52.224;7.484;2023-09-08T13:08:01;5.30;;;4.10;;
29776;SDS011;16677;52.224;7.484;2023-09-08T13:10:28;5.10;;;4.18;;
29776;SDS011;16677;52.224;7.484;2023-09-08T13:12:56;5.63;;;4.35;;
29776;SDS011;16677;52.224;7.484;2023-09-08T13:15:23;4.93;;;4.28;;
29776;SDS011;16677;52.224;7.484;2023-09-08T13:17:50;6.07;;;4.53;;
29776;SDS011;16677;52.224;7.484;2023-09-08T13:20:17;5.82;;;4.18;;
29776;SDS011;16677;52.224;7.484;2023-09-08T13:22:46;4.57;;;4.07;;
29776;SDS011;16677;52.224;7.484;2023-09-08T13:25:13;6.10;;;4.22;;
29776;SDS011;16677;52.224;7.484;2023-09-08T13:27:40;4.38;;;4.00;;
29776;SDS011;16677;52.224;7.484;2023-09-08T13:30:11;4.88;;;4.38;;
29776;SDS011;16677;52.224;7.484;2023-09-08T13:32:39;4.53;;;4.13;;
29776;SDS011;16677;52.224;7.484;2023-09-08T13:35:07;6.30;;;4.28;;
29776;SDS011;16677;52.224;7.484;2023-09-08T13:37:34;5.82;;;4.43;;
29776;SDS011;16677;52.224;7.484;2023-09-08T13:40:04;4.45;;;3.78;;
29776;SDS011;16677;52.224;7.484;2023-09-08T13:42:31;5.20;;;4.53;;
29776;SDS011;16677;52.224;7.484;2023-09-08T13:44:59;4.75;;;4.35;;
29776;SDS011;16677;52.224;7.484;2023-09-08T13:47:27;4.78;;;4.18;;
29776;SDS011;16677;52.224;7.484;2023-09-08T13:49:54;5.85;;;3.85;;
29776;SDS011;16677;52.224;7.484;2023-09-08T13:52:24;5.22;;;3.90;;
29776;SDS011;16677;52.224;7.484;2023-09-08T13:54:56;4.85;;;3.72;;
29776;SDS011;16677;52.224;7.484;2023-09-08T13:57:26;7.28;;;4.22;;
29776;SDS011;16677;52.224;7.484;2023-09-08T13:59:54;4.85;;;3.90;;
29776;SDS011;16677;52.224;7.484;2023-09-08T14:02:23;5.00;;;4.20;;
29776;SDS011;16677;52.224;7.484;2023-09-08T14:04:53;5.28;;;4.00;;
29776;SDS011;16677;52.224;7.484;2023-09-08T14:07:26;5.90;;;4.18;;
29776;SDS011;16677;52.224;7.484;2023-09-08T14:10:02;6.80;;;4.25;;
29776;SDS011;16677;52.224;7.484;2023-09-08T14:12:36;6.57;;;4.13;;
29776;SDS011;16677;52.224;7.484;2023-09-08T14:15:04;6.70;;;4.85;;
29776;SDS011;16677;52.224;7.484;2023-09-08T14:17:31;4.40;;;4.00;;
29776;SDS011;16677;52.224;7.484;2023-09-08T14:19:58;6.32;;;4.05;;
29776;SDS011;16677;52.224;7.484;2023-09-08T14:22:25;8.50;;;4.40;;
29776;SDS011;16677;52.224;7.484;2023-09-08T14:24:53;5.10;;;4.30;;
29776;SDS011;16677;52.224;7.484;2023-09-08T14:27:20;5.03;;;4.53;;
29776;SDS011;16677;52.224;7.484;2023-09-08T14:29:47;7.32;;;4.50;;
29776;SDS011;16677;52.224;7.484;2023-09-08T14:32:14;8.02;;;4.40;;
29776;SDS011;16677;52.224;7.484;2023-09-08T14:34:41;5.60;;;4.30;;
29776;SDS011;16677;52.224;7.484;2023-09-08T14:37:08;5.18;;;3.97;;
29776;SDS011;16677;52.224;7.484;2023-09-08T14:39:36;8.95;;;4.22;;
29776;SDS011;16677;52.224;7.484;2023-09-08T14:42:04;5.50;;;4.25;;
29776;SDS011;16677;52.224;7.484;2023-09-08T14:44:32;5.63;;;4.18;;
29776;SDS011;16677;52.224;7.484;2023-09-08T14:46:59;5.97;;;4.35;;
29776;SDS011;16677;52.224;7.484;2023-09-08T14:49:26;4.63;;;3.75;;
29776;SDS011;16677;52.224;7.484;2023-09-08T14:51:53;6.45;;;4.05;;
29776;SDS011;16677;52.224;7.484;2023-09-08T14:54:20;4.25;;;3.88;;
29776;SDS011;16677;52.224;7.484;2023-09-08T14:56:47;4.00;;;3.70;;
29776;SDS011;16677;52.224;7.484;2023-09-08T14:59:14;7.32;;;4.63;;
29776;SDS011;16677;52.224;7.484;2023-09-08T15:01:40;4.13;;;3.83;;
29776;SDS011;16677;52.224;7.484;2023-09-08T15:04:10;6.43;;;4.18;;
29776;SDS011;16677;52.224;7.484;2023-09-08T15:06:37;4.63;;;3.97;;
29776;SDS011;16677;52.224;7.484;2023-09-08T15:09:04;4.75;;;4.13;;
29776;SDS011;16677;52.224;7.484;2023-09-08T15:11:31;5.10;;;4.00;;
29776;SDS011;16677;52.224;7.484;2023-09-08T15:13:58;4.43;;;3.90;;
29776;SDS011;16677;52.224;7.484;2023-09-08T15:16:25;5.43;;;4.78;;
29776;SDS011;16677;52.224;7.484;2023-09-08T15:18:52;5.13;;;4.15;;
29776;SDS011;16677;52.224;7.484;2023-09-08T15:21:23;6.63;;;4.35;;
29776;SDS011;16677;52.224;7.484;2023-09-08T15:23:54;8.60;;;4.85;;
29776;SDS011;16677;52.224;7.484;2023-09-08T15:26:21;6.55;;;4.10;;
29776;SDS011;16677;52.224;7.484;2023-09-08T15:28:48;7.15;;;4.50;;
29776;SDS011;16677;52.224;7.484;2023-09-08T15:31:16;6.93;;;4.68;;
29776;SDS011;16677;52.224;7.484;2023-09-08T15:33:43;8.57;;;4.50;;
29776;SDS011;16677;52.224;7.484;2023-09-08T15:36:11;5.13;;;4.10;;
29776;SDS011;16677;52.224;7.484;2023-09-08T15:38:39;5.03;;;4.47;;
29776;SDS011;16677;52.224;7.484;2023-09-08T15:43:35;8.90;;;4.60;;
29776;SDS011;16677;52.224;7.484;2023-09-08T15:46:07;5.38;;;4.32;;
29776;SDS011;16677;52.224;7.484;2023-09-08T15:48:34;4.95;;;4.50;;
29776;SDS011;16677;52.224;7.484;2023-09-08T15:51:03;6.03;;;4.43;;
29776;SDS011;16677;52.224;7.484;2023-09-08T15:53:31;6.70;;;4.25;;
29776;SDS011;16677;52.224;7.484;2023-09-08T15:55:58;4.28;;;3.92;;
29776;SDS011;16677;52.224;7.484;2023-09-08T15:58:25;9.02;;;4.45;;
29776;SDS011;16677;52.224;7.484;2023-09-08T16:00:52;5.93;;;4.78;;
29776;SDS011;16677;52.224;7.484;2023-09-08T16:03:19;5.85;;;4.20;;
29776;SDS011;16677;52.224;7.484;2023-09-08T16:13:07;6.20;;;4.57;;
29776;SDS011;16677;52.224;7.484;2023-09-08T16:18:01;5.40;;;4.30;;
29776;SDS011;16677;52.224;7.484;2023-09-08T16:20:31;7.03;;;4.78;;
29776;SDS011;16677;52.224;7.484;2023-09-08T16:22:58;6.13;;;4.30;;
29776;SDS011;16677;52.224;7.484;2023-09-08T16:25:25;5.97;;;4.65;;
29776;SDS011;16677;52.224;7.484;2023-09-08T16:27:52;5.72;;;4.53;;
29776;SDS011;16677;52.224;7.484;2023-09-08T16:30:19;5.82;;;4.35;;
29776;SDS011;16677;52.224;7.484;2023-09-08T16:32:47;4.25;;;3.85;;
29776;SDS011;16677;52.224;7.484;2023-09-08T16:35:14;4.63;;;4.13;;
29776;SDS011;16677;52.224;7.484;2023-09-08T16:37:41;4.68;;;4.28;;
29776;SDS011;16677;52.224;7.484;2023-09-08T16:40:09;4.75;;;4.18;;
29776;SDS011;16677;52.224;7.484;2023-09-08T16:42:37;6.20;;;4.47;;
29776;SDS011;16677;52.224;7.484;2023-09-08T16:45:04;5.28;;;4.75;;
29776;SDS011;16677;52.224;7.484;2023-09-08T16:47:31;6.20;;;4.68;;
29776;SDS011;16677;52.224;7.484;2023-09-08T16:49:58;7.40;;;4.40;;
29776;SDS011;16677;52.224;7.484;2023-09-08T16:52:26;6.80;;;4.50;;
29776;SDS011;16677;52.224;7.484;2023-09-08T16:54:53;6.47;;;4.80;;
29776;SDS011;16677;52.224;7.484;2023-09-08T16:57:20;5.35;;;4.85;;
29776;SDS011;16677;52.224;7.484;2023-09-08T17:02:13;8.98;;;4.75;;
29776;SDS011;16677;52.224;7.484;2023-09-08T17:04:41;7.43;;;4.72;;
29776;SDS011;16677;52.224;7.484;2023-09-08T17:07:10;5.38;;;4.97;;
29776;SDS011;16677;52.224;7.484;2023-09-08T17:51:27;6.35;;;4.95;;
29776;SDS011;16677;52.224;7.484;2023-09-08T18:01:15;6.55;;;5.95;;
29776;SDS011;16677;52.224;7.484;2023-09-08T18:13:33;9.07;;;7.40;;
29776;SDS011;16677;52.224;7.484;2023-09-08T18:16:03;11.10;;;9.90;;
29776;SDS011;16677;52.224;7.484;2023-09-08T18:18:31;10.13;;;9.00;;
29776;SDS011;16677;52.224;7.484;2023-09-08T18:21:01;10.07;;;8.95;;
29776;SDS011;16677;52.224;7.484;2023-09-08T18:23:28;9.80;;;8.90;;
29776;SDS011;16677;52.224;7.484;2023-09-08T18:25:55;11.25;;;8.73;;
29776;SDS011;16677;52.224;7.484;2023-09-08T18:28:22;10.82;;;9.35;;
29776;SDS011;16677;52.224;7.484;2023-09-08T18:30:50;10.05;;;8.75;;
29776;SDS011;16677;52.224;7.484;2023-09-08T18:33:20;7.63;;;6.75;;
29776;SDS011;16677;52.224;7.484;2023-09-08T18:35:47;7.47;;;6.30;;
29776;SDS011;16677;52.224;7.484;2023-09-08T18:38:14;8.18;;;5.80;;